Terminal Aerodrome Forecast
Issued by NWS Wilmington, OH

Current Version | Previous Version | Graphics & Text | Print | Product List | Glossary On
Versions: 1 2 3 4 5 6 7 8 9 10 11 12 13 14 15 16 17 18 19 20 21 22 23
000
FTUS41 KILN 241700
TAFCVG
TAF
KCVG 241740Z 2418/2524 06007KT P6SM SCT040 BKN250
     FM250000 12004KT P6SM BKN200
     FM250700 VRB03KT 4SM BR SCT200
      TEMPO 2509/2512 3SM BR FEW010
     FM251300 14005KT P6SM SCT060=

USA.gov is the U.S. government's official web portal to all federal, state and local government web resources and services.